Time;durP1;ratioP1;P1;durP2;ratioP2;P2;SDS_P1;SDS_P2;PMS_P1;PMS_P2;Temp;Humidity;BMP_temperature;BMP_pressure;BME280_temperature;BME280_humidity;BME280_pressure;Samples;Min_cycle;Max_cycle;Signal;HPM_P1;HPM_P2
2022/11/18 00:01:29;;;;;;;3.60;0.30;;;9.40;99.90;;;;;;5029803;28;20871;-60
2022/11/18 00:03:55;;;;;;;3.50;0.30;;;9.50;99.90;;;;;;5029324;28;20387;-53
2022/11/18 00:06:23;;;;;;;4.28;0.40;;;9.40;99.90;;;;;;5029640;28;20406;-52
2022/11/18 00:08:50;;;;;;;3.80;0.30;;;9.40;99.90;;;;;;5028856;28;20467;-52
2022/11/18 00:14:18;;;;;;;3.55;0.22;;;9.50;99.90;;;;;;5029723;28;20871;-55
2022/11/18 00:16:57;;;;;;;3.60;0.30;;;9.40;99.90;;;;;;5027698;28;20399;-56
2022/11/18 00:19:25;;;;;;;4.50;0.30;;;9.50;99.90;;;;;;5030015;28;20434;-52
2022/11/18 00:21:51;;;;;;;5.90;0.40;;;9.40;99.90;;;;;;5029220;28;20383;-53
2022/11/18 00:24:17;;;;;;;3.50;0.30;;;9.40;1.00;;;;;;5029712;28;20406;-53
2022/11/18 00:26:42;;;;;;;4.30;0.40;;;9.40;99.90;;;;;;5029004;28;20418;-52
2022/11/18 00:29:09;;;;;;;3.40;0.20;;;9.50;99.90;;;;;;5029894;28;20804;-52
2022/11/18 00:31:36;;;;;;;6.80;0.50;;;9.40;99.90;;;;;;5028536;28;20426;-53
2022/11/18 00:34:01;;;;;;;5.30;0.40;;;9.40;1.00;;;;;;5012067;28;20904;-53
2022/11/18 00:36:28;;;;;;;5.07;0.50;;;9.50;1.00;;;;;;5029644;28;20498;-53
2022/11/18 00:38:54;;;;;;;4.70;0.50;;;9.60;99.90;;;;;;5028953;28;20531;-53
2022/11/18 00:41:19;;;;;;;3.58;0.30;;;9.60;99.90;;;;;;5029110;28;20477;-53
2022/11/18 00:43:45;;;;;;;3.40;0.20;;;9.60;99.90;;;;;;5029725;28;20438;-53
2022/11/18 00:46:11;;;;;;;3.80;0.50;;;9.70;99.90;;;;;;5030597;28;20394;-53
2022/11/18 00:48:38;;;;;;;3.60;0.30;;;9.70;1.00;;;;;;5029843;28;20372;-53
2022/11/18 00:51:13;;;;;;;3.90;0.35;;;9.70;99.90;;;;;;5030486;28;20485;-53
2022/11/18 00:53:39;;;;;;;4.77;0.50;;;9.60;99.90;;;;;;5029727;28;20876;-54
2022/11/18 00:56:05;;;;;;;5.30;0.50;;;9.60;1.00;;;;;;5030489;28;20509;-58
2022/11/18 00:58:30;;;;;;;3.80;0.40;;;9.70;1.00;;;;;;5029938;28;20422;-62
2022/11/18 01:00:56;;;;;;;4.50;0.60;;;9.70;1.00;;;;;;5030035;28;20716;-53
2022/11/18 01:03:23;;;;;;;3.80;0.40;;;9.70;99.90;;;;;;5030134;28;20476;-57
2022/11/18 01:05:49;;;;;;;3.70;0.40;;;9.60;1.00;;;;;;5028619;28;20399;-53
2022/11/18 01:08:14;;;;;;;4.10;0.52;;;9.60;1.00;;;;;;5011543;28;20375;-52
2022/11/18 01:10:40;;;;;;;5.40;0.70;;;9.60;1.00;;;;;;5028150;28;20493;-53
2022/11/18 01:13:19;;;;;;;4.38;0.50;;;9.60;1.00;;;;;;5029344;28;20833;-53
2022/11/18 01:15:47;;;;;;;4.90;0.40;;;9.60;1.00;;;;;;5028073;28;20749;-53
2022/11/18 01:18:14;;;;;;;3.80;0.50;;;9.60;1.00;;;;;;5028617;28;20898;-53
2022/11/18 01:20:40;;;;;;;4.97;0.50;;;9.60;1.00;;;;;;5028295;28;20402;-52
2022/11/18 01:23:06;;;;;;;4.60;0.68;;;10.20;1.00;;;;;;5029385;28;20375;-53
2022/11/18 01:25:31;;;;;;;4.70;0.60;;;9.50;1.00;;;;;;5028229;28;20851;-62
2022/11/18 01:27:57;;;;;;;3.80;0.60;;;11.00;1.00;;;;;;5028777;28;20856;-52
2022/11/18 01:30:23;;;;;;;4.60;0.60;;;9.50;1.00;;;;;;5028727;28;20409;-52
2022/11/18 01:32:48;;;;;;;4.43;0.60;;;10.70;1.00;;;;;;5027750;28;20391;-53
2022/11/18 01:35:14;;;;;;;6.75;0.80;;;9.40;1.00;;;;;;5028828;28;20462;-52
2022/11/18 01:37:40;;;;;;;3.70;0.50;;;9.40;1.00;;;;;;5027667;28;20483;-54
2022/11/18 01:40:08;;;;;;;3.60;0.50;;;9.40;1.00;;;;;;5028659;28;20418;-53
2022/11/18 01:42:34;;;;;;;4.00;0.52;;;9.40;1.00;;;;;;5027547;28;20426;-59
2022/11/18 01:45:03;;;;;;;5.30;0.60;;;9.30;1.00;;;;;;5028617;28;20864;-52
2022/11/18 01:47:39;;;;;;;4.40;0.65;;;9.20;1.00;;;;;;5028718;28;20522;-53
2022/11/18 01:50:06;;;;;;;5.10;0.60;;;9.10;1.00;;;;;;5028619;28;20425;-53
2022/11/18 01:52:33;;;;;;;4.80;0.40;;;9.10;1.00;;;;;;5027453;28;20835;-61
2022/11/18 01:55:05;;;;;;;4.25;0.55;;;9.10;1.00;;;;;;5028739;28;20409;-53
2022/11/18 01:57:32;;;;;;;3.80;0.50;;;9.20;1.00;;;;;;5028134;28;20375;-61
2022/11/18 02:00:02;;;;;;;3.90;0.50;;;9.20;1.00;;;;;;5028127;28;20421;-53
2022/11/18 02:02:31;;;;;;;4.33;0.50;;;9.70;1.00;;;;;;5028468;28;20395;-53
2022/11/18 02:04:57;;;;;;;4.00;0.60;;;10.20;1.00;;;;;;5028431;28;20879;-53
2022/11/18 02:07:24;;;;;;;4.32;0.55;;;9.20;1.00;;;;;;5028746;28;20817;-53
2022/11/18 02:09:52;;;;;;;3.70;0.50;;;9.60;1.00;;;;;;5009848;28;20399;-52
2022/11/18 02:12:18;;;;;;;3.80;0.50;;;9.20;1.00;;;;;;5028429;28;20402;-52
2022/11/18 02:14:45;;;;;;;3.80;0.57;;;9.10;1.00;;;;;;5027642;28;20423;-53
2022/11/18 02:17:14;;;;;;;4.10;0.50;;;9.20;1.00;;;;;;5028280;28;20433;-53
2022/11/18 02:19:45;;;;;;;3.50;0.40;;;9.20;1.00;;;;;;5027550;28;20439;-52
2022/11/18 02:22:17;;;;;;;3.40;0.40;;;9.50;1.00;;;;;;5028089;28;20865;-55
2022/11/18 02:25:03;;;;;;;3.40;0.30;;;9.00;1.00;;;;;;5027975;28;20401;-53
2022/11/18 02:27:58;;;;;;;3.42;0.30;;;8.90;1.00;;;;;;5028309;28;20383;-53
2022/11/18 02:30:24;;;;;;;3.40;0.40;;;8.90;7.00;;;;;;5028246;28;20414;-52
2022/11/18 02:33:02;;;;;;;3.80;0.30;;;8.90;16.10;;;;;;5026941;28;20566;-53
2022/11/18 02:35:31;;;;;;;4.80;0.40;;;8.90;10.70;;;;;;5027270;28;20383;-53
2022/11/18 02:38:08;;;;;;;3.40;0.40;;;8.80;28.50;;;;;;5027144;28;20741;-54
2022/11/18 02:40:35;;;;;;;3.30;0.35;;;8.90;29.30;;;;;;5027230;28;20483;-62
2022/11/18 02:43:14;;;;;;;3.70;0.50;;;9.00;27.40;;;;;;5027546;28;20427;-53
2022/11/18 02:45:44;;;;;;;3.80;0.30;;;9.10;1.00;;;;;;5027295;28;20384;-53
2022/11/18 02:48:12;;;;;;;4.55;0.30;;;9.20;4.00;;;;;;5026597;28;20554;-53
2022/11/18 02:50:40;;;;;;;3.40;0.40;;;9.50;1.00;;;;;;5025131;28;20756;-53
2022/11/18 02:53:09;;;;;;;3.40;0.40;;;9.10;6.60;;;;;;5027826;28;20475;-53
2022/11/18 02:55:36;;;;;;;3.67;0.40;;;9.10;18.20;;;;;;5027066;28;20421;-60
2022/11/18 02:58:04;;;;;;;5.55;0.90;;;8.90;45.10;;;;;;5027107;28;20869;-53
2022/11/18 03:00:30;;;;;;;3.30;0.32;;;8.90;58.80;;;;;;5027285;28;20391;-53
2022/11/18 03:02:56;;;;;;;3.60;0.55;;;8.80;91.40;;;;;;5028258;28;20399;-53
2022/11/18 03:05:39;;;;;;;3.50;0.40;;;9.50;90.20;;;;;;5031338;28;20383;-53
2022/11/18 03:08:16;;;;;;;4.90;0.45;;;8.90;91.60;;;;;;5030066;28;20399;-54
2022/11/18 03:11:09;;;;;;;3.77;0.40;;;9.10;80.40;;;;;;5030363;28;20403;-53
2022/11/18 03:13:54;;;;;;;4.97;0.40;;;9.10;37.10;;;;;;5029918;28;20868;-59
2022/11/18 03:16:29;;;;;;;3.60;0.50;;;9.10;24.90;;;;;;5013361;28;20757;-52
2022/11/18 03:19:06;;;;;;;3.20;0.20;;;9.10;31.90;;;;;;5030475;28;20486;-53
2022/11/18 03:21:40;;;;;;;4.60;0.50;;;9.20;26.90;;;;;;5030653;28;20437;-60
2022/11/18 03:24:24;;;;;;;4.00;0.47;;;9.10;1.00;;;;;;5030722;28;20458;-55
2022/11/18 03:26:56;;;;;;;3.50;0.40;;;9.10;1.00;;;;;;5030317;28;20462;-53
2022/11/18 03:29:29;;;;;;;3.30;0.30;;;9.10;1.00;;;;;;5031150;28;20377;-53
2022/11/18 03:32:04;;;;;;;3.63;0.43;;;8.90;24.20;;;;;;5030077;28;21253;-53
2022/11/18 03:34:38;;;;;;;3.40;0.30;;;8.90;28.50;;;;;;5030645;28;20466;-53
2022/11/18 03:37:08;;;;;;;3.30;0.30;;;8.90;33.20;;;;;;5030576;28;20380;-53
2022/11/18 03:39:38;;;;;;;3.78;0.50;;;8.90;38.90;;;;;;5030067;28;20371;-61
2022/11/18 03:42:11;;;;;;;3.50;0.40;;;9.00;13.00;;;;;;5030034;28;20833;-53
2022/11/18 03:44:40;;;;;;;3.60;0.40;;;8.80;79.20;;;;;;5029942;28;20462;-54
2022/11/18 03:47:13;;;;;;;6.10;1.20;;;8.80;88.10;;;;;;5030585;28;20419;-54
2022/11/18 03:49:56;;;;;;;3.90;0.40;;;8.60;41.70;;;;;;5029737;28;20382;-55
2022/11/18 03:52:25;;;;;;;4.68;0.50;;;9.20;99.90;;;;;;5030628;28;20453;-53
2022/11/18 03:54:55;;;;;;;3.50;0.40;;;8.60;99.90;;;;;;5029373;28;20383;-53
2022/11/18 03:57:32;;;;;;;4.90;0.40;;;9.30;90.20;;;;;;5030595;28;20402;-52
2022/11/18 04:00:13;;;;;;;5.00;0.47;;;8.60;64.80;;;;;;5029610;28;20434;-53
2022/11/18 04:02:39;;;;;;;4.50;0.40;;;8.60;53.30;;;;;;5029220;28;20391;-53
2022/11/18 04:05:09;;;;;;;4.30;0.60;;;8.70;42.10;;;;;;5012359;28;20537;-52
2022/11/18 04:08:01;;;;;;;4.00;0.40;;;8.60;45.10;;;;;;5011758;28;20395;-62
2022/11/18 04:12:01;;;;;;;3.30;0.40;;;8.70;33.60;;;;;;5030066;28;20927;-54
2022/11/18 04:13:57;;;;;;;3.50;0.30;;;8.70;25.20;;;;;;4967628;28;20415;-53
2022/11/18 04:16:23;;;;;;;4.90;0.38;;;8.70;1.00;;;;;;4968249;28;20400;-53
2022/11/18 04:18:49;;;;;;;3.30;0.20;;;8.70;3.10;;;;;;5007513;28;20456;-53
2022/11/18 04:21:14;;;;;;;4.10;0.30;;;8.70;4.80;;;;;;5030254;28;20394;-53
2022/11/18 04:23:40;;;;;;;3.73;0.30;;;8.70;1.00;;;;;;5029302;28;20376;-54
2022/11/18 04:26:05;;;;;;;3.97;0.50;;;8.70;1.00;;;;;;5012147;28;20411;-53
2022/11/18 04:28:31;;;;;;;3.90;0.60;;;9.20;1.00;;;;;;5029964;28;20395;-55
2022/11/18 04:30:56;;;;;;;3.80;0.40;;;8.60;1.00;;;;;;5021399;28;20820;-53
2022/11/18 04:33:22;;;;;;;3.60;0.40;;;8.60;1.00;;;;;;5009984;28;20393;-52
2022/11/18 04:35:48;;;;;;;3.20;0.20;;;8.40;9.00;;;;;;5009118;28;20451;-52
2022/11/18 04:38:13;;;;;;;4.00;0.40;;;8.30;1.00;;;;;;5010011;28;20739;-54
2022/11/18 04:40:39;;;;;;;3.60;0.40;;;8.40;1.00;;;;;;5008918;28;20491;-53
2022/11/18 04:43:04;;;;;;;3.80;0.60;;;8.40;1.00;;;;;;5017193;28;20403;-55
2022/11/18 04:45:30;;;;;;;3.57;0.30;;;8.40;1.00;;;;;;5017568;28;20492;-58
2022/11/18 04:47:55;;;;;;;3.80;0.70;;;8.40;1.00;;;;;;5016395;28;20424;-54
2022/11/18 04:50:21;;;;;;;3.63;0.32;;;8.30;1.00;;;;;;5019317;28;20559;-52
2022/11/18 04:52:46;;;;;;;4.70;0.30;;;8.40;1.00;;;;;;5019633;28;20394;-52
2022/11/18 04:55:12;;;;;;;3.28;0.20;;;8.40;1.00;;;;;;5017725;28;20483;-53
2022/11/18 04:57:37;;;;;;;4.90;0.30;;;8.50;1.00;;;;;;5017792;28;20864;-53
2022/11/18 05:00:04;;;;;;;3.60;0.40;;;9.60;1.00;;;;;;5019703;28;20468;-54
2022/11/18 05:02:30;;;;;;;5.80;0.60;;;8.50;1.00;;;;;;5011773;28;20474;-53
2022/11/18 05:04:55;;;;;;;3.47;0.20;;;8.60;1.00;;;;;;5014509;28;20945;-52
2022/11/18 05:07:21;;;;;;;3.70;0.30;;;8.90;1.00;;;;;;5008939;28;20400;-53
2022/11/18 05:09:46;;;;;;;3.70;0.40;;;9.80;1.00;;;;;;5008830;28;20474;-54
2022/11/18 05:14:57;;;;;;;3.90;0.50;;;8.50;1.00;;;;;;5024765;28;20995;-54
2022/11/18 05:17:23;;;;;;;4.40;0.40;;;8.40;1.00;;;;;;4993972;28;20489;-52
2022/11/18 05:19:49;;;;;;;3.47;0.30;;;8.30;1.00;;;;;;5002122;28;20404;-52
2022/11/18 05:22:15;;;;;;;3.60;0.30;;;8.20;1.00;;;;;;4999433;28;20427;-53
2022/11/18 05:24:42;;;;;;;4.20;0.30;;;8.30;1.00;;;;;;4988560;28;20453;-53
2022/11/18 05:27:08;;;;;;;3.30;0.30;;;8.30;1.00;;;;;;4997826;28;20724;-53
2022/11/18 05:29:33;;;;;;;4.10;0.50;;;8.20;1.00;;;;;;5008328;28;20427;-61
2022/11/18 05:31:59;;;;;;;3.70;0.40;;;8.20;1.00;;;;;;5001868;28;20428;-53
2022/11/18 05:34:24;;;;;;;4.70;0.50;;;8.10;1.00;;;;;;5008997;28;20761;-54
2022/11/18 05:36:50;;;;;;;4.40;0.30;;;9.10;1.00;;;;;;5026871;28;20387;-53
2022/11/18 05:39:16;;;;;;;3.47;0.30;;;8.60;1.00;;;;;;5028734;28;20426;-53
2022/11/18 05:44:26;;;;;;;3.40;0.30;;;8.10;2.60;;;;;;5028431;28;20733;-53
2022/11/18 05:46:51;;;;;;;3.33;0.28;;;8.10;1.00;;;;;;5015668;28;20389;-53
2022/11/18 05:49:17;;;;;;;3.90;0.30;;;8.20;1.00;;;;;;5008381;28;20563;-55
2022/11/18 05:51:42;;;;;;;3.40;0.30;;;8.70;1.00;;;;;;4998539;28;20424;-53
2022/11/18 05:54:10;;;;;;;4.00;0.30;;;8.30;1.00;;;;;;5007207;28;20415;-53
2022/11/18 05:56:42;;;;;;;3.60;0.30;;;8.20;1.00;;;;;;5000059;28;20398;-60
2022/11/18 05:59:08;;;;;;;3.60;0.30;;;8.10;1.00;;;;;;4984676;28;20418;-53
2022/11/18 06:02:10;;;;;;;3.40;0.30;;;8.10;1.00;;;;;;4999834;28;20411;-55
2022/11/18 06:04:58;;;;;;;3.50;0.30;;;8.20;1.00;;;;;;4983449;28;20432;-60
2022/11/18 06:07:28;;;;;;;3.92;0.60;;;8.30;1.00;;;;;;5003017;28;20408;-59
2022/11/18 06:09:57;;;;;;;3.60;0.40;;;8.20;1.00;;;;;;5011086;28;20466;-53
2022/11/18 06:12:26;;;;;;;4.20;0.40;;;8.20;1.00;;;;;;5007974;28;20470;-54
2022/11/18 06:15:04;;;;;;;3.20;0.22;;;9.60;1.00;;;;;;5004283;28;20967;-54
2022/11/18 06:17:34;;;;;;;3.38;0.30;;;8.10;1.00;;;;;;4997971;28;20399;-52
2022/11/18 06:20:01;;;;;;;3.40;0.40;;;8.10;1.00;;;;;;5006483;28;20405;-55
2022/11/18 06:22:27;;;;;;;3.63;0.30;;;8.10;1.00;;;;;;5003993;28;20490;-53
2022/11/18 06:24:53;;;;;;;3.50;0.30;;;8.10;1.00;;;;;;5003047;28;20858;-53
2022/11/18 06:27:19;;;;;;;3.73;0.30;;;8.10;1.00;;;;;;5006242;28;20683;-53
2022/11/18 06:29:44;;;;;;;3.58;0.47;;;8.20;1.00;;;;;;4989568;28;20983;-55
2022/11/18 06:32:10;;;;;;;3.50;0.40;;;8.20;1.00;;;;;;5002854;28;20418;-53
2022/11/18 06:34:35;;;;;;;4.40;0.50;;;8.20;1.00;;;;;;5005735;28;20543;-60
2022/11/18 06:37:12;;;;;;;4.40;0.40;;;9.30;1.00;;;;;;5002864;28;20503;-53
2022/11/18 06:39:37;;;;;;;4.97;0.57;;;8.40;1.00;;;;;;4997568;28;20478;-60
2022/11/18 06:42:03;;;;;;;3.60;0.50;;;8.40;1.00;;;;;;5008684;28;20562;-53
2022/11/18 06:44:28;;;;;;;4.20;0.50;;;8.40;1.00;;;;;;5015754;28;20780;-53
2022/11/18 06:46:54;;;;;;;4.60;0.70;;;8.40;1.00;;;;;;5030413;28;20848;-53
2022/11/18 06:49:20;;;;;;;3.50;0.40;;;9.90;1.00;;;;;;5030758;28;21354;-54
2022/11/18 06:51:45;;;;;;;3.60;0.43;;;9.80;1.00;;;;;;5030290;28;20407;-54
2022/11/18 06:54:11;;;;;;;3.60;0.40;;;8.50;1.00;;;;;;5031421;28;20384;-53
2022/11/18 06:56:37;;;;;;;3.80;0.50;;;8.50;1.00;;;;;;5013042;28;20395;-61
2022/11/18 06:59:03;;;;;;;5.70;0.60;;;8.50;1.00;;;;;;5031039;28;20379;-53
2022/11/18 07:01:31;;;;;;;3.88;0.50;;;8.60;1.00;;;;;;5031442;28;20462;-53
2022/11/18 07:03:58;;;;;;;3.80;0.60;;;8.70;1.00;;;;;;5023995;28;20481;-52
2022/11/18 07:06:26;;;;;;;3.78;0.60;;;8.70;1.00;;;;;;5016363;28;20522;-53
2022/11/18 07:08:52;;;;;;;3.50;0.40;;;8.70;1.00;;;;;;5024283;28;20387;-52
2022/11/18 07:11:21;;;;;;;3.85;0.50;;;8.60;1.00;;;;;;5014995;28;20430;-53
2022/11/18 07:13:47;;;;;;;3.30;0.30;;;8.50;1.00;;;;;;5011443;28;20381;-53
2022/11/18 07:16:21;;;;;;;4.00;0.60;;;8.70;1.00;;;;;;5031203;28;20375;-54
2022/11/18 07:18:48;;;;;;;4.40;0.50;;;8.60;1.00;;;;;;5030098;28;20390;-53
2022/11/18 07:21:16;;;;;;;3.78;0.50;;;9.70;1.00;;;;;;5031120;28;20530;-53
2022/11/18 07:23:42;;;;;;;4.20;0.60;;;9.20;1.00;;;;;;5017762;28;20413;-54
2022/11/18 07:26:08;;;;;;;3.30;0.30;;;8.80;1.00;;;;;;5011025;28;20456;-53
2022/11/18 07:28:34;;;;;;;4.70;0.50;;;8.80;1.00;;;;;;5011238;28;20472;-53
2022/11/18 07:31:05;;;;;;;3.80;0.50;;;8.90;1.00;;;;;;5010430;28;20491;-53
2022/11/18 07:33:31;;;;;;;4.40;0.50;;;9.00;1.00;;;;;;5011005;28;20389;-53
2022/11/18 07:36:12;;;;;;;3.90;0.50;;;9.10;1.00;;;;;;5010219;28;20460;-53
2022/11/18 07:38:38;;;;;;;3.90;0.77;;;9.20;1.00;;;;;;5010620;28;20381;-61
2022/11/18 07:41:11;;;;;;;4.90;0.60;;;9.30;1.00;;;;;;5025840;28;20417;-53
2022/11/18 07:43:37;;;;;;;4.80;0.70;;;9.30;1.00;;;;;;5030830;28;20418;-61
2022/11/18 07:46:15;;;;;;;4.20;0.60;;;9.30;1.00;;;;;;5030475;28;20844;-54
2022/11/18 07:48:42;;;;;;;3.60;0.50;;;9.30;1.00;;;;;;5029931;28;20470;-53
2022/11/18 07:51:09;;;;;;;3.70;0.50;;;9.30;1.00;;;;;;5029489;28;20895;-53
2022/11/18 07:53:35;;;;;;;3.70;0.43;;;9.20;1.00;;;;;;5030506;28;20392;-53
2022/11/18 07:56:02;;;;;;;4.60;0.47;;;11.00;1.00;;;;;;5029311;28;20383;-52
2022/11/18 07:58:27;;;;;;;3.90;0.70;;;9.20;1.00;;;;;;5030199;28;20371;-53
2022/11/18 08:00:53;;;;;;;3.90;0.55;;;9.10;1.00;;;;;;5029395;28;20401;-53
2022/11/18 08:03:19;;;;;;;3.60;0.30;;;9.20;1.00;;;;;;5030428;28;20482;-53
2022/11/18 08:05:44;;;;;;;4.10;0.57;;;9.10;1.00;;;;;;5029699;28;20743;-53
2022/11/18 08:08:10;;;;;;;3.90;0.60;;;9.10;1.00;;;;;;5029659;28;20462;-54
2022/11/18 08:10:36;;;;;;;3.80;0.70;;;10.50;1.00;;;;;;5030178;28;20434;-53
2022/11/18 08:13:02;;;;;;;4.07;0.90;;;9.10;1.00;;;;;;5029304;28;20387;-52
2022/11/18 08:15:27;;;;;;;4.30;0.80;;;9.30;1.00;;;;;;5012617;28;20787;-53
2022/11/18 08:17:53;;;;;;;3.70;0.50;;;9.10;1.00;;;;;;5009251;28;20384;-53
2022/11/18 08:20:19;;;;;;;3.60;0.50;;;9.10;1.00;;;;;;5010218;28;20475;-55
2022/11/18 08:22:44;;;;;;;3.58;0.47;;;9.00;1.00;;;;;;5008753;28;20443;-53
2022/11/18 08:25:10;;;;;;;3.90;0.73;;;9.00;1.00;;;;;;5009973;28;20388;-53
2022/11/18 08:27:35;;;;;;;3.90;0.70;;;9.00;1.00;;;;;;5010535;28;20436;-54
2022/11/18 08:30:01;;;;;;;4.00;0.60;;;9.20;1.00;;;;;;5009218;28;20738;-53
2022/11/18 08:32:27;;;;;;;3.80;0.60;;;9.20;1.00;;;;;;5009678;28;20882;-52
2022/11/18 08:34:52;;;;;;;3.60;0.50;;;9.10;1.00;;;;;;5009257;28;20385;-53
2022/11/18 08:37:18;;;;;;;4.07;0.60;;;10.20;1.00;;;;;;5009691;28;20389;-53
2022/11/18 08:39:44;;;;;;;3.50;0.40;;;9.20;1.00;;;;;;5007703;28;20397;-53
2022/11/18 08:42:10;;;;;;;4.77;0.40;;;9.20;1.00;;;;;;5009881;28;20416;-53
2022/11/18 08:44:35;;;;;;;3.58;0.40;;;10.00;1.00;;;;;;5009935;28;20772;-53
2022/11/18 08:47:01;;;;;;;5.07;0.40;;;9.30;1.00;;;;;;5009064;28;20976;-53
2022/11/18 08:49:27;;;;;;;3.60;0.40;;;9.30;1.00;;;;;;5009874;28;20384;-53
2022/11/18 08:51:52;;;;;;;4.00;0.80;;;9.30;1.00;;;;;;5008550;28;20407;-53
2022/11/18 08:54:18;;;;;;;3.60;0.60;;;9.30;1.00;;;;;;5009670;28;20389;-53
2022/11/18 08:56:44;;;;;;;4.97;0.80;;;9.50;1.00;;;;;;5008748;28;20404;-53
2022/11/18 08:59:09;;;;;;;3.80;0.40;;;9.60;1.00;;;;;;5009339;28;20487;-53
2022/11/18 09:01:36;;;;;;;3.80;0.50;;;9.60;1.00;;;;;;5009423;28;20420;-53
2022/11/18 09:04:02;;;;;;;3.60;0.30;;;9.80;1.00;;;;;;5008395;28;21280;-53
2022/11/18 09:06:28;;;;;;;3.70;0.40;;;9.90;1.00;;;;;;5009713;28;20815;-52
2022/11/18 09:08:54;;;;;;;4.47;0.57;;;9.80;1.00;;;;;;5008728;28;20497;-52
2022/11/18 09:11:22;;;;;;;5.15;0.50;;;9.70;1.00;;;;;;5009154;28;20503;-53
2022/11/18 09:13:53;;;;;;;3.97;0.50;;;9.80;1.00;;;;;;5008165;28;20464;-54
2022/11/18 09:16:18;;;;;;;4.22;0.55;;;9.80;1.00;;;;;;5025106;28;20444;-53
2022/11/18 09:18:44;;;;;;;3.70;0.50;;;9.80;1.00;;;;;;5028359;28;20383;-53
2022/11/18 09:21:09;;;;;;;5.23;0.60;;;11.20;1.00;;;;;;5028556;28;20402;-55
2022/11/18 09:23:37;;;;;;;3.90;0.70;;;9.80;1.00;;;;;;5028767;28;20407;-53
2022/11/18 09:26:09;;;;;;;5.25;0.65;;;9.80;1.00;;;;;;5028106;28;20407;-52
2022/11/18 09:28:35;;;;;;;3.67;0.50;;;9.80;1.00;;;;;;5028621;28;20884;-53
2022/11/18 09:31:06;;;;;;;3.70;0.50;;;9.90;1.00;;;;;;5027916;28;20395;-53
2022/11/18 09:33:31;;;;;;;3.92;0.50;;;9.80;1.00;;;;;;5028111;28;20402;-53
2022/11/18 09:35:57;;;;;;;4.38;0.80;;;9.70;1.00;;;;;;5027932;28;20492;-52
2022/11/18 09:38:22;;;;;;;4.90;1.00;;;9.60;1.00;;;;;;5028404;28;20741;-53
2022/11/18 09:40:56;;;;;;;4.60;1.50;;;10.60;1.00;;;;;;5027883;28;20486;-53
2022/11/18 09:43:37;;;;;;;4.17;0.60;;;9.50;1.00;;;;;;5028329;28;20407;-53
2022/11/18 09:46:18;;;;;;;3.53;0.40;;;9.50;1.00;;;;;;5027903;28;20383;-53
2022/11/18 09:51:35;;;;;;;3.58;0.40;;;8.80;1.00;;;;;;5028121;28;20450;-53
2022/11/18 09:54:13;;;;;;;3.63;0.45;;;9.40;1.00;;;;;;5027431;28;20437;-53
2022/11/18 09:56:40;;;;;;;3.70;0.50;;;9.50;1.00;;;;;;5026938;28;20835;-61
2022/11/18 09:59:05;;;;;;;3.80;0.60;;;9.50;1.00;;;;;;5028032;28;20424;-53
2022/11/18 10:01:31;;;;;;;3.60;0.50;;;9.50;1.00;;;;;;5028209;28;20690;-54
2022/11/18 10:03:57;;;;;;;3.80;0.60;;;9.60;1.00;;;;;;5027269;28;20864;-53
2022/11/18 10:06:30;;;;;;;3.80;0.57;;;9.60;1.00;;;;;;5028216;28;20832;-53
2022/11/18 10:09:05;;;;;;;6.00;0.80;;;9.50;1.00;;;;;;5027847;28;20807;-53
2022/11/18 10:11:44;;;;;;;5.23;0.80;;;9.30;19.50;;;;;;5028133;28;20429;-53
2022/11/18 10:14:28;;;;;;;4.00;0.80;;;9.40;49.70;;;;;;5024898;28;20400;-53
2022/11/18 10:17:11;;;;;;;4.20;0.95;;;9.30;86.00;;;;;;5011820;28;20463;-53
2022/11/18 10:20:03;;;;;;;4.07;0.90;;;9.30;78.80;;;;;;5012349;28;20397;-54
2022/11/18 10:22:59;;;;;;;4.10;0.90;;;9.40;63.90;;;;;;4981804;28;20392;-54
2022/11/18 10:25:25;;;;;;;3.90;0.90;;;9.60;65.80;;;;;;5012110;28;20850;-53
2022/11/18 10:27:51;;;;;;;6.70;1.10;;;9.70;1.00;;;;;;5011337;28;20470;-54
2022/11/18 10:30:24;;;;;;;5.05;1.10;;;9.90;9.70;;;;;;5012327;28;20475;-53
2022/11/18 10:32:54;;;;;;;5.30;1.38;;;9.70;1.00;;;;;;5011337;28;20468;-52
2022/11/18 10:35:28;;;;;;;5.43;1.50;;;9.80;2.10;;;;;;5012018;28;20763;-53
2022/11/18 10:38:20;;;;;;;5.38;1.50;;;9.80;1.10;;;;;;5011912;28;20385;-53
2022/11/18 10:40:51;;;;;;;6.57;1.40;;;9.90;1.00;;;;;;5007684;28;20478;-53
2022/11/18 10:43:49;;;;;;;4.70;1.50;;;9.80;1.00;;;;;;5011610;28;20417;-53
2022/11/18 10:46:27;;;;;;;5.40;1.33;;;9.90;1.00;;;;;;5011981;28;20420;-53
2022/11/18 10:49:08;;;;;;;4.85;1.10;;;9.90;1.00;;;;;;5011074;28;20393;-53
2022/11/18 10:51:35;;;;;;;9.50;1.30;;;10.00;1.00;;;;;;5011707;28;20431;-53
2022/11/18 10:54:11;;;;;;;4.78;1.30;;;10.10;1.00;;;;;;5011176;28;20447;-53
2022/11/18 10:56:48;;;;;;;4.63;1.30;;;10.10;1.00;;;;;;5011922;28;20439;-54
2022/11/18 10:59:25;;;;;;;5.10;1.45;;;10.10;1.00;;;;;;5011683;28;20410;-53
2022/11/18 11:02:16;;;;;;;5.65;1.70;;;10.10;1.00;;;;;;5011055;28;20420;-53
2022/11/18 11:04:44;;;;;;;5.70;1.75;;;10.10;1.00;;;;;;4993397;28;20416;-61
2022/11/18 11:07:26;;;;;;;6.93;1.90;;;10.10;1.00;;;;;;5011482;28;20865;-53
2022/11/18 11:10:03;;;;;;;7.63;1.83;;;10.10;1.00;;;;;;5010467;28;20786;-53
2022/11/18 11:12:46;;;;;;;4.78;1.45;;;9.90;1.00;;;;;;5011254;28;20877;-53
2022/11/18 11:15:23;;;;;;;4.80;1.25;;;9.90;1.00;;;;;;5018095;28;20407;-54
2022/11/18 11:20:45;;;;;;;4.47;0.95;;;9.50;1.00;;;;;;5030882;28;20381;-54
2022/11/18 11:23:12;;;;;;;3.97;0.80;;;9.40;1.00;;;;;;5031193;28;20688;-54
2022/11/18 11:25:47;;;;;;;4.28;0.90;;;9.70;1.00;;;;;;5029450;28;20389;-54
2022/11/18 11:28:36;;;;;;;4.20;1.00;;;9.60;1.00;;;;;;5030800;28;20820;-55
2022/11/18 11:31:36;;;;;;;4.00;0.90;;;10.00;1.00;;;;;;5019204;28;20422;-54
2022/11/18 11:34:20;;;;;;;4.50;1.10;;;10.10;1.00;;;;;;4956460;28;20534;-54
2022/11/18 11:36:49;;;;;;;5.55;1.10;;;10.20;1.00;;;;;;5030256;28;20379;-53
2022/11/18 11:39:50;;;;;;;4.40;1.10;;;10.20;1.00;;;;;;5030653;28;20383;-55
2022/11/18 11:42:40;;;;;;;4.70;1.20;;;10.60;1.00;;;;;;5030825;28;20422;-53
2022/11/18 11:45:34;;;;;;;6.90;1.30;;;10.80;99.90;;;;;;5030253;28;20824;-53
2022/11/18 11:48:17;;;;;;;4.77;1.30;;;11.10;99.90;;;;;;5030123;28;20392;-53
2022/11/18 11:50:52;;;;;;;4.70;1.20;;;10.90;99.90;;;;;;5030232;28;20772;-60
2022/11/18 11:53:26;;;;;;;4.47;1.02;;;10.90;99.90;;;;;;5030335;28;20397;-53
2022/11/18 11:55:58;;;;;;;4.00;0.80;;;10.80;99.90;;;;;;5029386;28;20464;-53
2022/11/18 11:58:45;;;;;;;4.35;1.00;;;10.70;99.90;;;;;;5030647;28;20484;-53
2022/11/18 12:01:55;;;;;;;4.30;0.90;;;10.50;99.90;;;;;;5030670;28;20434;-53
2022/11/18 12:04:35;;;;;;;3.70;0.60;;;10.50;99.90;;;;;;5030215;28;20383;-53
2022/11/18 12:07:03;;;;;;;5.30;1.00;;;10.50;1.00;;;;;;5029771;28;20445;-53
2022/11/18 12:09:31;;;;;;;4.30;1.00;;;10.50;99.90;;;;;;5012553;28;20395;-53
2022/11/18 12:12:33;;;;;;;4.70;1.10;;;10.50;99.90;;;;;;5029706;28;20907;-53
2022/11/18 12:15:05;;;;;;;4.20;0.80;;;10.60;99.90;;;;;;5016059;28;20404;-54
2022/11/18 12:17:44;;;;;;;4.80;1.00;;;10.80;99.90;;;;;;5005766;28;20437;-56
2022/11/18 12:20:35;;;;;;;4.03;0.63;;;10.90;73.10;;;;;;5007790;28;20420;-54
2022/11/18 12:23:11;;;;;;;4.40;1.00;;;10.70;1.00;;;;;;4995572;28;20547;-54
2022/11/18 12:25:51;;;;;;;4.68;0.85;;;10.70;1.00;;;;;;5023524;28;20396;-52
2022/11/18 12:28:40;;;;;;;5.30;0.93;;;10.40;1.00;;;;;;4999440;28;20869;-56
2022/11/18 12:31:18;;;;;;;5.30;0.93;;;10.30;99.90;;;;;;5004364;28;20897;-53
2022/11/18 12:33:53;;;;;;;4.78;0.80;;;10.30;99.90;;;;;;5008743;28;20471;-60
2022/11/18 12:36:38;;;;;;;5.90;1.00;;;10.30;24.40;;;;;;5007922;28;20413;-53
2022/11/18 12:39:23;;;;;;;4.80;1.10;;;10.40;99.90;;;;;;5005364;28;20887;-53
2022/11/18 12:44:47;;;;;;;4.53;1.00;;;10.40;1.00;;;;;;5003582;28;20427;-60
2022/11/18 12:47:14;;;;;;;7.15;1.48;;;10.80;13.10;;;;;;5007582;28;20484;-54
2022/11/18 12:49:45;;;;;;;8.52;1.50;;;10.30;26.00;;;;;;5007430;28;20913;-55
2022/11/18 12:52:29;;;;;;;4.28;0.90;;;10.30;99.90;;;;;;5008799;28;20408;-54
2022/11/18 12:55:10;;;;;;;5.65;1.52;;;10.60;99.90;;;;;;5003317;28;20390;-53
2022/11/18 12:57:40;;;;;;;5.70;1.40;;;10.50;1.00;;;;;;4999103;28;20385;-53
2022/11/18 13:00:51;;;;;;;6.38;1.25;;;11.10;99.90;;;;;;5002002;28;20389;-53
2022/11/18 13:03:23;;;;;;;5.38;1.20;;;10.20;99.90;;;;;;4995486;28;20398;-54
2022/11/18 13:05:50;;;;;;;7.15;1.50;;;10.30;99.90;;;;;;5001990;28;20432;-54
2022/11/18 13:08:17;;;;;;;5.45;1.10;;;10.10;99.90;;;;;;5008206;28;20387;-53
2022/11/18 13:10:46;;;;;;;6.88;1.10;;;10.10;53.40;;;;;;5008514;28;20805;-60
2022/11/18 13:13:41;;;;;;;5.95;1.20;;;10.00;1.00;;;;;;5009378;28;20747;-53
2022/11/18 13:19:08;;;;;;;4.00;0.90;;;10.20;99.90;;;;;;4990208;28;20553;-53
2022/11/18 13:24:21;;;;;;;5.95;1.35;;;10.40;99.90;;;;;;5009117;28;20396;-54
2022/11/18 13:26:53;;;;;;;4.57;0.85;;;10.60;8.60;;;;;;5008578;28;20392;-58
2022/11/18 13:29:26;;;;;;;5.60;1.10;;;10.50;1.00;;;;;;5009282;28;20385;-53
2022/11/18 13:32:21;;;;;;;4.70;0.93;;;10.70;99.90;;;;;;5000397;28;20413;-53
2022/11/18 13:35:10;;;;;;;6.10;1.08;;;10.90;1.00;;;;;;4988766;28;20390;-55
2022/11/18 13:37:57;;;;;;;5.50;1.15;;;11.20;99.90;;;;;;4989258;28;20443;-54
2022/11/18 13:40:25;;;;;;;5.50;1.13;;;11.50;99.90;;;;;;4989343;28;20378;-55
2022/11/18 13:42:50;;;;;;;4.47;0.90;;;11.50;99.90;;;;;;4996563;28;20404;-57
2022/11/18 13:45:16;;;;;;;5.07;0.90;;;11.50;99.90;;;;;;5008934;28;20857;-54
2022/11/18 13:47:50;;;;;;;5.10;1.10;;;11.70;99.90;;;;;;4995783;28;20410;-61